Tolbukhin, Bulgaria
Current Conditions -  °F | °C
As of 12:00 AM on Tuesday 21 Oct 2014 (Local Time) from LBWN Reporting Station
Clear Clear  
Wind Chill: 50°   Ceiling: Unl
Heat Index: 50°   Visibility: 6mi
Dew Point: 45°   Wind: 2mph
Humidity: 82%   Direction: 340°NNW
Pressure: 29.97"   Gusts: NA
Location:  43.57°N, 27.82°E
Report Text: LBWN 202100Z 34001MPS CAVOK 10/07 Q1015 NOSIG
Loading
Personal Weather Stations






























Interactive Weather Map
Tropical Storm Tracking
New forecast layout! Learn more

10-Day Weather Forecast

Advertisements
Track Severe Weather on mobile